createdAt,value
2023-02-07T00:01:20.595Z,28.73
2023-02-07T00:03:49.932Z,29.77
2023-02-07T00:06:20.057Z,28.47
2023-02-07T00:08:48.210Z,31.07
2023-02-07T00:11:17.272Z,27.60
2023-02-07T00:13:45.403Z,33.77
2023-02-07T00:16:13.300Z,27.27
2023-02-07T00:18:41.407Z,30.63
2023-02-07T00:21:13.200Z,28.93
2023-02-07T00:23:40.925Z,30.70
2023-02-07T00:26:09.419Z,30.33
2023-02-07T00:28:37.489Z,26.67
2023-02-07T00:31:06.998Z,31.77
2023-02-07T00:33:35.509Z,29.40
2023-02-07T00:36:04.852Z,26.63
2023-02-07T00:38:34.353Z,27.40
2023-02-07T00:41:02.804Z,32.33
2023-02-07T00:43:30.991Z,27.20
2023-02-07T00:45:59.479Z,29.27
2023-02-07T00:48:27.100Z,35.60
2023-02-07T00:50:54.796Z,36.93
2023-02-07T00:53:22.582Z,39.17
2023-02-07T00:55:51.476Z,45.40
2023-02-07T00:58:18.945Z,37.47
2023-02-07T01:00:46.543Z,37.03
2023-02-07T01:03:13.997Z,41.20
2023-02-07T01:05:41.650Z,36.73
2023-02-07T01:08:09.383Z,37.53
2023-02-07T01:10:39.465Z,36.60
2023-02-07T01:13:08.300Z,33.47
2023-02-07T01:15:37.821Z,30.73
2023-02-07T01:18:06.966Z,28.80
2023-02-07T01:20:34.546Z,35.37
2023-02-07T01:23:02.039Z,29.47
2023-02-07T01:25:29.571Z,29.53
2023-02-07T01:27:57.054Z,30.00
2023-02-07T01:30:25.875Z,30.53
2023-02-07T01:32:53.325Z,33.07
2023-02-07T01:35:21.328Z,38.90
2023-02-07T01:37:48.772Z,32.43
2023-02-07T01:40:16.770Z,32.00
2023-02-07T01:42:44.196Z,34.77
2023-02-07T01:45:24.245Z,33.97
2023-02-07T01:47:55.009Z,35.03
2023-02-07T01:50:23.591Z,29.03
2023-02-07T01:52:51.546Z,35.27
2023-02-07T01:55:23.919Z,31.73
2023-02-07T01:57:53.490Z,36.07
2023-02-07T02:00:21.967Z,36.83
2023-02-07T02:02:49.481Z,36.57
2023-02-07T02:05:19.969Z,38.40
2023-02-07T02:07:47.411Z,35.07
2023-02-07T02:10:16.918Z,38.20
2023-02-07T02:12:56.275Z,36.07
2023-02-07T02:15:33.084Z,37.97
2023-02-07T02:18:17.591Z,36.67
2023-02-07T02:21:13.533Z,41.87
2023-02-07T02:23:51.473Z,34.80
2023-02-07T02:26:48.034Z,39.27
2023-02-07T02:29:37.837Z,42.63
2023-02-07T02:32:27.508Z,39.03
2023-02-07T02:35:03.993Z,38.13
2023-02-07T02:37:41.975Z,39.57
2023-02-07T02:40:14.999Z,38.47
2023-02-07T02:42:47.634Z,39.53
2023-02-07T02:45:19.975Z,43.90
2023-02-07T02:47:50.636Z,42.73
2023-02-07T02:50:24.127Z,37.70
2023-02-07T02:52:51.585Z,38.70
2023-02-07T02:55:32.364Z,38.93
2023-02-07T02:58:11.646Z,37.30
2023-02-07T03:00:51.771Z,40.87
2023-02-07T03:03:37.244Z,39.27
2023-02-07T03:06:20.959Z,37.43
2023-02-07T03:08:58.355Z,36.17
2023-02-07T03:11:27.869Z,41.47
2023-02-07T03:14:06.002Z,44.37
2023-02-07T03:16:39.556Z,41.50
2023-02-07T03:19:10.857Z,40.47
2023-02-07T03:21:43.804Z,40.17
2023-02-07T03:24:16.082Z,42.77
2023-02-07T03:26:46.794Z,41.40
2023-02-07T03:29:16.728Z,41.73
2023-02-07T03:31:49.361Z,38.03
2023-02-07T03:34:20.362Z,37.03
2023-02-07T03:36:55.848Z,41.13
2023-02-07T03:39:23.545Z,40.17
2023-02-07T03:41:56.463Z,38.17
2023-02-07T03:44:27.015Z,40.93
2023-02-07T03:46:55.519Z,38.40
2023-02-07T03:49:23.220Z,37.83
2023-02-07T03:51:52.017Z,40.63
2023-02-07T03:54:19.773Z,49.50
2023-02-07T03:56:47.227Z,41.83
2023-02-07T03:59:14.674Z,42.57
2023-02-07T04:01:42.734Z,43.93
2023-02-07T04:04:11.418Z,40.73
2023-02-07T04:06:39.446Z,39.30
2023-02-07T04:09:10.716Z,43.23
2023-02-07T04:11:39.148Z,41.83
2023-02-07T04:14:06.625Z,49.13
2023-02-07T04:16:34.488Z,46.30
2023-02-07T04:19:01.935Z,45.97
2023-02-07T04:21:29.385Z,48.20
2023-02-07T04:23:56.837Z,45.17
2023-02-07T04:26:25.643Z,45.57
2023-02-07T04:28:53.134Z,44.57
2023-02-07T04:31:20.588Z,45.43
2023-02-07T04:33:49.161Z,42.97
2023-02-07T04:36:16.702Z,40.47
2023-02-07T04:38:44.770Z,49.70
2023-02-07T04:41:12.247Z,48.30
2023-02-07T04:43:40.978Z,43.80
2023-02-07T04:46:09.880Z,42.67
2023-02-07T04:48:37.963Z,43.93
2023-02-07T04:51:05.698Z,47.07
2023-02-07T04:53:33.315Z,41.27
2023-02-07T04:56:00.756Z,41.70
2023-02-07T04:58:28.419Z,40.13
2023-02-07T05:00:57.195Z,43.17
2023-02-07T05:03:24.636Z,46.50
2023-02-07T05:05:54.563Z,40.33
2023-02-07T05:08:22.910Z,38.83
2023-02-07T05:10:53.530Z,37.87
2023-02-07T05:13:21.149Z,36.60
2023-02-07T05:15:48.855Z,40.57
2023-02-07T05:18:17.696Z,51.33
2023-02-07T05:20:45.269Z,36.73
2023-02-07T05:23:12.756Z,38.13
2023-02-07T05:25:42.160Z,41.27
2023-02-07T05:28:09.828Z,43.93
2023-02-07T05:30:37.845Z,40.80
2023-02-07T05:33:04.452Z,39.63
2023-02-07T05:35:34.383Z,37.03
2023-02-07T05:38:02.189Z,42.40
2023-02-07T05:40:29.633Z,41.37
2023-02-07T05:42:57.030Z,45.77
2023-02-07T05:45:24.452Z,44.43
2023-02-07T05:47:51.949Z,47.03
2023-02-07T05:50:19.557Z,42.77
2023-02-07T05:52:48.465Z,39.57
2023-02-07T05:55:16.512Z,43.77
2023-02-07T05:57:45.612Z,49.13
2023-02-07T06:00:15.559Z,41.40
2023-02-07T06:02:43.707Z,42.17
2023-02-07T06:05:13.444Z,44.70
2023-02-07T06:07:40.871Z,44.67
2023-02-07T06:10:10.534Z,41.33
2023-02-07T06:12:38.137Z,47.00
2023-02-07T06:15:05.938Z,50.30
2023-02-07T06:17:33.574Z,43.37
2023-02-07T06:20:00.990Z,50.13
2023-02-07T06:22:28.425Z,43.13
2023-02-07T06:24:55.826Z,39.03
2023-02-07T06:27:24.627Z,42.40
2023-02-07T06:29:52.038Z,47.33
2023-02-07T06:32:19.477Z,46.57
2023-02-07T06:34:46.872Z,46.13
2023-02-07T06:37:14.477Z,47.47
2023-02-07T06:39:41.928Z,47.40
2023-02-07T06:42:09.433Z,44.50
2023-02-07T06:44:38.149Z,46.47
2023-02-07T06:47:05.715Z,46.07
2023-02-07T06:49:33.165Z,41.80
2023-02-07T06:52:00.624Z,40.17
2023-02-07T06:54:28.208Z,44.70
2023-02-07T06:56:55.630Z,42.47
2023-02-07T06:59:23.026Z,40.17
2023-02-07T07:01:51.829Z,40.50
2023-02-07T07:04:19.342Z,42.90
2023-02-07T07:06:47.869Z,43.73
2023-02-07T07:09:15.313Z,44.63
2023-02-07T07:11:44.304Z,42.87
2023-02-07T07:14:12.455Z,39.80
2023-02-07T07:16:41.622Z,51.37
2023-02-07T07:19:10.378Z,49.87
2023-02-07T07:21:37.776Z,45.07
2023-02-07T07:24:05.780Z,42.63
2023-02-07T07:26:47.888Z,45.20
2023-02-07T07:29:16.868Z,43.83
2023-02-07T07:31:44.423Z,43.87
2023-02-07T07:34:13.741Z,44.13
2023-02-07T07:36:41.247Z,43.00
2023-02-07T07:39:08.967Z,43.57
2023-02-07T07:41:36.424Z,47.47
2023-02-07T07:44:04.022Z,42.87
2023-02-07T07:46:31.524Z,49.87
2023-02-07T07:48:59.074Z,49.77
2023-02-07T07:51:27.832Z,40.53
2023-02-07T07:53:55.271Z,42.33
2023-02-07T07:56:22.653Z,41.33
2023-02-07T07:58:50.098Z,46.27
2023-02-07T08:01:17.928Z,39.13
2023-02-07T08:03:45.417Z,40.43
2023-02-07T08:06:12.872Z,44.07
2023-02-07T08:08:41.871Z,44.20
2023-02-07T08:11:10.949Z,50.90
2023-02-07T08:13:38.853Z,39.70
2023-02-07T08:16:08.626Z,43.00
2023-02-07T08:18:36.469Z,47.17
2023-02-07T08:21:04.450Z,44.10
2023-02-07T08:23:31.897Z,37.27
2023-02-07T08:26:00.673Z,39.90
2023-02-07T08:28:28.748Z,34.70
2023-02-07T08:31:00.247Z,35.93
2023-02-07T08:33:30.185Z,33.67
2023-02-07T08:35:58.445Z,31.37
2023-02-07T08:38:25.877Z,30.40
2023-02-07T08:40:53.377Z,29.60
2023-02-07T08:43:22.090Z,29.00
2023-02-07T08:45:50.209Z,30.77
2023-02-07T08:48:17.890Z,30.70
2023-02-07T08:50:45.303Z,30.53
2023-02-07T08:53:12.982Z,30.27
2023-02-07T08:55:41.825Z,32.80
2023-02-07T08:58:09.546Z,32.63
2023-02-07T09:00:39.229Z,33.30
2023-02-07T09:03:07.248Z,26.43
2023-02-07T09:05:34.738Z,27.57
2023-02-07T09:08:02.854Z,21.07
2023-02-07T09:10:30.573Z,30.87
2023-02-07T09:12:57.992Z,26.77
2023-02-07T09:15:26.247Z,25.63
2023-02-07T09:17:54.994Z,24.67
2023-02-07T09:20:22.446Z,29.57
2023-02-07T09:23:07.335Z,25.53
2023-02-07T09:25:34.762Z,22.17
2023-02-07T09:28:02.233Z,24.57
2023-02-07T09:30:29.697Z,27.67
2023-02-07T09:32:59.206Z,25.07
2023-02-07T09:35:26.704Z,25.40
2023-02-07T09:41:50.281Z,24.70
2023-02-07T09:44:25.725Z,23.37
2023-02-07T09:46:59.195Z,25.73
2023-02-07T09:49:36.915Z,30.13
2023-02-07T09:52:06.618Z,31.07
2023-02-07T09:54:39.268Z,27.73
2023-02-07T09:57:11.061Z,29.23
2023-02-07T09:59:47.401Z,24.87
2023-02-07T10:02:21.755Z,22.93
2023-02-07T10:04:52.688Z,22.10
2023-02-07T10:07:20.293Z,25.80
2023-02-07T10:09:48.406Z,23.70
2023-02-07T10:12:41.603Z,26.03
2023-02-07T10:15:28.212Z,21.90
2023-02-07T10:18:12.836Z,24.47
2023-02-07T10:20:47.333Z,21.37
2023-02-07T10:23:29.124Z,25.77
2023-02-07T10:26:12.076Z,22.13
2023-02-07T10:28:59.731Z,29.57
2023-02-07T10:31:29.518Z,23.70
2023-02-07T10:34:05.225Z,25.60
2023-02-07T10:36:34.827Z,25.17
2023-02-07T10:39:09.842Z,26.33
2023-02-07T10:41:39.729Z,24.37
2023-02-07T10:44:10.733Z,26.97
2023-02-07T10:46:39.577Z,26.20
2023-02-07T10:49:07.161Z,28.57
2023-02-07T10:51:39.572Z,22.80
2023-02-07T10:54:10.050Z,28.07
2023-02-07T10:56:43.018Z,24.77
2023-02-07T10:59:33.369Z,25.33
2023-02-07T11:02:01.181Z,24.73
2023-02-07T11:04:36.343Z,27.30
2023-02-07T11:07:07.471Z,24.50
2023-02-07T11:09:37.680Z,23.73
2023-02-07T11:12:16.365Z,28.17
2023-02-07T11:15:01.256Z,24.80
2023-02-07T11:17:29.500Z,23.37
2023-02-07T11:19:57.138Z,24.33
2023-02-07T11:22:29.295Z,22.83
2023-02-07T11:25:03.593Z,26.83
2023-02-07T11:27:38.164Z,22.40
2023-02-07T11:30:09.159Z,20.73
2023-02-07T11:32:39.217Z,22.67
2023-02-07T11:35:09.459Z,25.40
2023-02-07T11:37:41.963Z,24.07
2023-02-07T11:40:24.756Z,24.37
2023-02-07T11:43:00.140Z,25.07
2023-02-07T11:45:29.014Z,22.10
2023-02-07T11:47:58.623Z,20.13
2023-02-07T11:50:30.706Z,24.73
2023-02-07T11:53:01.510Z,20.73
2023-02-07T11:55:33.908Z,22.03
2023-02-07T11:58:05.402Z,21.60
2023-02-07T12:00:37.295Z,21.13
2023-02-07T12:03:08.864Z,22.20
2023-02-07T12:05:40.224Z,22.80
2023-02-07T12:08:16.256Z,20.83
2023-02-07T12:10:46.701Z,20.30
2023-02-07T12:13:19.157Z,24.37
2023-02-07T12:15:50.502Z,25.33
2023-02-07T12:18:27.068Z,19.60
2023-02-07T12:23:43.077Z,21.53
2023-02-07T12:26:20.553Z,18.30
2023-02-07T12:29:01.308Z,22.70
2023-02-07T12:31:42.410Z,24.47
2023-02-07T12:34:18.347Z,21.10
2023-02-07T12:36:52.109Z,21.57
2023-02-07T12:39:28.291Z,20.13
2023-02-07T12:42:03.489Z,21.10
2023-02-07T12:44:35.013Z,21.07
2023-02-07T12:47:09.197Z,19.43
2023-02-07T12:49:54.914Z,24.00
2023-02-07T12:52:35.247Z,19.20
2023-02-07T12:55:20.489Z,19.13
2023-02-07T12:58:05.614Z,22.10
2023-02-07T13:00:48.666Z,18.00
2023-02-07T13:03:28.826Z,20.63
2023-02-07T13:06:05.733Z,19.97
2023-02-07T13:08:43.826Z,16.93
2023-02-07T13:11:25.444Z,11.27
2023-02-07T13:14:05.455Z,18.83
2023-02-07T13:16:40.938Z,17.57
2023-02-07T13:19:18.692Z,14.97
2023-02-07T13:21:55.113Z,15.07
2023-02-07T13:24:25.692Z,17.10
2023-02-07T13:26:58.212Z,15.37
2023-02-07T13:29:28.274Z,17.13
2023-02-07T13:31:59.232Z,18.17
2023-02-07T13:34:31.482Z,16.00
2023-02-07T13:37:05.356Z,14.93
2023-02-07T13:39:53.772Z,15.77
2023-02-07T13:42:32.079Z,19.20
2023-02-07T13:45:07.450Z,19.77
2023-02-07T13:47:51.794Z,18.57
2023-02-07T13:50:31.799Z,21.17
2023-02-07T13:53:06.209Z,17.77
2023-02-07T13:55:37.979Z,18.43
2023-02-07T13:59:03.509Z,19.80
2023-02-07T14:01:32.845Z,20.10
2023-02-07T14:04:05.388Z,17.27
2023-02-07T14:06:36.949Z,22.03
2023-02-07T14:09:11.759Z,16.60
2023-02-07T14:11:43.910Z,19.03
2023-02-07T14:14:24.065Z,18.57
2023-02-07T14:16:53.918Z,14.30
2023-02-07T14:19:49.538Z,15.83
2023-02-07T14:22:18.827Z,17.03
2023-02-07T14:24:52.458Z,16.20
2023-02-07T14:27:30.973Z,17.37
2023-02-07T14:30:17.938Z,16.03
2023-02-07T14:33:01.864Z,14.83
2023-02-07T14:35:32.684Z,19.13
2023-02-07T14:38:13.652Z,13.57
2023-02-07T14:41:09.614Z,17.87
2023-02-07T14:43:45.529Z,18.40
2023-02-07T14:46:17.760Z,17.23
2023-02-07T14:48:50.485Z,18.33
2023-02-07T14:51:21.600Z,18.47
2023-02-07T14:53:58.899Z,16.27
2023-02-07T14:56:47.250Z,19.20
2023-02-07T14:59:19.396Z,14.37
2023-02-07T15:01:48.263Z,15.80
2023-02-07T15:04:16.868Z,15.67
2023-02-07T15:06:45.718Z,14.70
2023-02-07T15:09:20.473Z,14.03
2023-02-07T15:11:53.970Z,16.73
2023-02-07T15:14:32.175Z,13.23
2023-02-07T15:17:01.480Z,15.53
2023-02-07T15:19:35.358Z,16.97
2023-02-07T15:22:05.602Z,14.20
2023-02-07T15:24:50.946Z,15.10
2023-02-07T15:27:21.648Z,15.57
2023-02-07T15:29:55.214Z,12.73
2023-02-07T15:32:27.905Z,13.90
2023-02-07T15:34:56.281Z,14.13
2023-02-07T15:37:26.043Z,16.33
2023-02-07T15:39:54.572Z,15.47
2023-02-07T15:42:22.937Z,16.07
2023-02-07T15:44:52.316Z,16.53
2023-02-07T15:47:37.367Z,18.47
2023-02-07T15:50:08.790Z,17.03
2023-02-07T15:52:41.073Z,17.90
2023-02-07T15:55:19.175Z,16.47
2023-02-07T15:57:46.697Z,16.00
2023-02-07T16:00:18.468Z,18.00
2023-02-07T16:02:56.889Z,30.03
2023-02-07T16:05:27.700Z,16.50
2023-02-07T16:07:55.860Z,15.93
2023-02-07T16:10:34.956Z,16.40
2023-02-07T16:13:03.183Z,16.80
2023-02-07T16:15:33.125Z,23.90
2023-02-07T16:18:03.257Z,28.13
2023-02-07T16:20:34.250Z,18.73
2023-02-07T16:23:04.498Z,20.07
2023-02-07T16:25:34.399Z,19.87
2023-02-07T16:28:04.678Z,23.47
2023-02-07T16:30:35.962Z,20.93
2023-02-07T16:33:06.575Z,22.10
2023-02-07T16:35:34.434Z,22.27
2023-02-07T16:38:01.941Z,20.67
2023-02-07T16:40:29.395Z,21.93
2023-02-07T16:42:57.907Z,21.43
2023-02-07T16:45:26.877Z,20.60
2023-02-07T16:47:55.288Z,20.10
2023-02-07T16:50:25.868Z,19.80
2023-02-07T16:52:56.876Z,17.60
2023-02-07T16:55:27.325Z,16.70
2023-02-07T16:57:55.867Z,20.60
2023-02-07T17:00:25.377Z,16.63
2023-02-07T17:02:53.929Z,18.47
2023-02-07T17:05:22.701Z,18.80
2023-02-07T17:07:52.040Z,17.07
2023-02-07T17:10:23.214Z,18.07
2023-02-07T17:12:50.711Z,15.67
2023-02-07T17:15:18.207Z,16.20
2023-02-07T17:17:45.872Z,18.27
2023-02-07T17:20:23.989Z,16.70
2023-02-07T17:22:53.471Z,18.83
2023-02-07T17:25:23.103Z,18.87
2023-02-07T17:27:50.669Z,17.53
2023-02-07T17:30:19.960Z,16.90
2023-02-07T17:32:47.578Z,16.97
2023-02-07T17:35:15.545Z,18.80
2023-02-07T17:37:43.262Z,23.30
2023-02-07T17:40:24.334Z,15.73
2023-02-07T17:42:51.837Z,17.63
2023-02-07T17:45:19.425Z,19.70
2023-02-07T17:47:47.004Z,19.73
2023-02-07T17:50:18.840Z,19.73
2023-02-07T17:52:46.841Z,18.30
2023-02-07T17:55:14.643Z,16.27
2023-02-07T17:57:44.294Z,20.00
2023-02-07T18:00:17.099Z,22.77
2023-02-07T18:02:47.317Z,18.93
2023-02-07T18:05:15.782Z,17.73
2023-02-07T18:07:43.405Z,20.47
2023-02-07T18:10:16.676Z,22.77
2023-02-07T18:12:45.555Z,20.77
2023-02-07T18:15:13.951Z,22.17
2023-02-07T18:17:47.092Z,21.53
2023-02-07T18:20:16.821Z,19.23
2023-02-07T18:22:44.260Z,18.13
2023-02-07T18:25:12.025Z,25.17
2023-02-07T18:27:39.475Z,20.67
2023-02-07T18:30:09.458Z,22.30
2023-02-07T18:32:36.960Z,22.50
2023-02-07T18:35:05.766Z,27.53
2023-02-07T18:37:33.513Z,27.53
2023-02-07T18:40:00.989Z,28.07
2023-02-07T18:42:29.868Z,26.13
2023-02-07T18:44:57.300Z,28.00
2023-02-07T18:47:26.644Z,29.77
2023-02-07T18:49:54.090Z,29.80
2023-02-07T18:52:21.557Z,26.90
2023-02-07T18:54:48.968Z,27.07
2023-02-07T18:57:16.515Z,27.10
2023-02-07T18:59:43.998Z,26.90
2023-02-07T19:02:13.074Z,28.83
2023-02-07T19:04:41.905Z,32.80
2023-02-07T19:07:09.370Z,29.27
2023-02-07T19:09:36.835Z,34.40
2023-02-07T19:12:04.638Z,31.57
2023-02-07T19:14:32.654Z,30.00
2023-02-07T19:17:01.105Z,29.17
2023-02-07T19:19:30.880Z,32.43
2023-02-07T19:22:00.345Z,32.17
2023-02-07T19:24:28.320Z,31.60
2023-02-07T19:26:57.286Z,29.53
2023-02-07T19:29:31.505Z,33.10
2023-02-07T19:32:00.965Z,27.97
2023-02-07T19:34:28.805Z,26.83
2023-02-07T19:36:56.636Z,25.67
2023-02-07T19:39:25.436Z,24.13
2023-02-07T19:41:53.273Z,29.90
2023-02-07T19:44:20.935Z,26.20
2023-02-07T19:46:48.478Z,29.67
2023-02-07T19:49:18.543Z,21.87
2023-02-07T19:51:46.012Z,25.30
2023-02-07T19:54:15.282Z,31.17
2023-02-07T19:56:44.241Z,26.30
2023-02-07T19:59:11.728Z,26.37
2023-02-07T20:01:39.301Z,26.87
2023-02-07T20:04:06.949Z,28.70
2023-02-07T20:06:35.785Z,29.17
2023-02-07T20:09:05.833Z,28.27
2023-02-07T20:11:36.250Z,30.30
2023-02-07T20:14:07.831Z,30.77
2023-02-07T20:16:39.602Z,29.40
2023-02-07T20:19:08.245Z,32.40
2023-02-07T20:21:37.349Z,28.23
2023-02-07T20:24:05.653Z,32.93
2023-02-07T20:26:39.668Z,35.33
2023-02-07T20:29:12.706Z,32.40
2023-02-07T20:31:40.436Z,30.83
2023-02-07T20:34:08.838Z,30.60
2023-02-07T20:36:40.770Z,31.60
2023-02-07T20:39:11.307Z,31.47
2023-02-07T20:41:41.467Z,37.07
2023-02-07T20:44:14.711Z,35.53
2023-02-07T20:46:46.588Z,31.53
2023-02-07T20:49:17.277Z,29.80
2023-02-07T20:51:45.633Z,32.63
2023-02-07T20:54:13.765Z,33.03
2023-02-07T20:56:41.324Z,28.20
2023-02-07T20:59:15.922Z,30.43
2023-02-07T21:01:43.327Z,29.27
2023-02-07T21:04:10.812Z,31.93
2023-02-07T21:06:38.459Z,27.57
2023-02-07T21:09:08.245Z,27.80
2023-02-07T21:11:38.066Z,31.03
2023-02-07T21:14:07.387Z,27.33
2023-02-07T21:16:36.540Z,31.83
2023-02-07T21:19:04.225Z,29.30
2023-02-07T21:21:32.175Z,30.80
2023-02-07T21:24:02.468Z,31.57
2023-02-07T21:26:32.577Z,31.43
2023-02-07T21:29:04.408Z,32.70
2023-02-07T21:31:34.863Z,30.30
2023-02-07T21:34:05.091Z,32.90
2023-02-07T21:36:34.381Z,30.47
2023-02-07T21:39:04.485Z,29.97
2023-02-07T21:41:32.218Z,29.20
2023-02-07T21:44:00.383Z,29.27
2023-02-07T21:46:30.145Z,29.50
2023-02-07T21:49:00.395Z,28.77
2023-02-07T21:51:31.367Z,30.83
2023-02-07T21:53:59.349Z,30.77
2023-02-07T21:56:29.236Z,36.53
2023-02-07T21:58:58.777Z,27.17
2023-02-07T22:01:27.185Z,26.73
2023-02-07T22:03:56.614Z,34.20
2023-02-07T22:06:24.671Z,29.60
2023-02-07T22:08:56.238Z,29.37
2023-02-07T22:11:25.629Z,28.30
2023-02-07T22:13:54.731Z,29.67
2023-02-07T22:16:24.422Z,27.63
2023-02-07T22:18:53.320Z,26.93
2023-02-07T22:21:23.472Z,34.40
2023-02-07T22:23:52.963Z,32.40
2023-02-07T22:26:20.701Z,28.67
2023-02-07T22:28:48.846Z,30.00
2023-02-07T22:31:19.267Z,31.30
2023-02-07T22:33:46.893Z,31.27
2023-02-07T22:36:15.371Z,32.90
2023-02-07T22:38:43.290Z,31.30
2023-02-07T22:41:12.315Z,30.73
2023-02-07T22:43:40.337Z,31.50
2023-02-07T22:46:13.855Z,28.83
2023-02-07T22:48:41.709Z,31.43
2023-02-07T22:51:13.476Z,29.20
2023-02-07T22:53:41.586Z,29.33
2023-02-07T22:56:09.569Z,27.20
2023-02-07T22:58:38.685Z,30.03
2023-02-07T23:01:07.806Z,31.80
2023-02-07T23:03:35.849Z,28.07
2023-02-07T23:06:04.637Z,31.30
2023-02-07T23:08:32.049Z,33.23
2023-02-07T23:10:59.619Z,34.63
2023-02-07T23:13:27.066Z,33.43
2023-02-07T23:15:55.848Z,33.37
2023-02-07T23:18:24.760Z,26.53
2023-02-07T23:20:52.836Z,30.43
2023-02-07T23:23:22.056Z,33.20
2023-02-07T23:25:49.769Z,32.53
2023-02-07T23:28:17.284Z,32.33
2023-02-07T23:30:44.974Z,32.23
2023-02-07T23:33:13.779Z,30.57
2023-02-07T23:35:41.195Z,30.87
2023-02-07T23:38:08.656Z,37.53
2023-02-07T23:40:36.081Z,34.10
2023-02-07T23:43:03.542Z,34.50
2023-02-07T23:45:30.972Z,33.27
2023-02-07T23:47:58.428Z,34.77
2023-02-07T23:50:29.193Z,36.23
2023-02-07T23:52:56.602Z,33.87
2023-02-07T23:55:24.067Z,32.47
2023-02-07T23:57:51.700Z,49.30
